Time;durP1;ratioP1;P1;durP2;ratioP2;P2;SDS_P1;SDS_P2;PMS_P1;PMS_P2;Temp;Humidity;BMP_temperature;BMP_pressure;BME280_temperature;BME280_humidity;BME280_pressure;Samples;Min_cycle;Max_cycle;Signal;HPM_P1;HPM_P2
2022/09/19 00:02:02;;;;;;;;;;;;;;;9.94;64.11;100510.42;1708106;83;25949;-68
2022/09/19 00:04:32;;;;;;;;;;;;;;;9.92;64.20;100508.36;1708202;84;26205;-68
2022/09/19 00:06:59;;;;;;;;;;;;;;;9.91;64.32;100504.80;1708734;84;28305;-68
2022/09/19 00:09:29;;;;;;;;;;;;;;;9.90;64.20;100507.64;1708251;83;26196;-68
2022/09/19 00:11:56;;;;;;;;;;;;;;;9.85;64.60;100505.37;1708515;84;25712;-68
2022/09/19 00:14:27;;;;;;;;;;;;;;;9.81;64.79;100499.42;1708130;84;25804;-69
2022/09/19 00:16:57;;;;;;;;;;;;;;;9.78;65.08;100506.91;1708239;84;25780;-68
2022/09/19 00:19:24;;;;;;;;;;;;;;;9.74;65.62;100506.34;1708092;83;28350;-68
2022/09/19 00:21:54;;;;;;;;;;;;;;;9.69;65.87;100508.09;1708169;84;25807;-68
2022/09/19 00:27:06;;;;;;;;;;;;;;;9.65;66.34;100508.50;1708359;84;25793;-68
2022/09/19 00:29:35;;;;;;;;;;;;;;;9.64;66.57;100512.17;1709242;83;25759;-69
2022/09/19 00:32:07;;;;;;;;;;;;;;;9.65;66.66;100519.25;1698899;84;27561;-68
2022/09/19 00:34:33;;;;;;;;;;;;;;;9.64;66.63;100513.52;1698318;84;25773;-68
2022/09/19 00:37:00;;;;;;;;;;;;;;;9.63;66.83;100518.05;1698666;84;25836;-68
2022/09/19 00:39:27;;;;;;;;;;;;;;;9.65;67.32;100520.09;1718357;83;26472;-68
2022/09/19 00:41:54;;;;;;;;;;;;;;;9.66;67.59;100521.78;1728236;83;25714;-68
2022/09/19 00:44:27;;;;;;;;;;;;;;;9.65;67.47;100513.88;1728172;83;28420;-68
2022/09/19 00:46:58;;;;;;;;;;;;;;;9.60;67.33;100522.34;1728359;83;25964;-68
2022/09/19 00:49:26;;;;;;;;;;;;;;;9.55;67.29;100521.87;1728206;83;25761;-68
2022/09/19 00:51:55;;;;;;;;;;;;;;;9.49;67.20;100521.09;1728324;83;25771;-69
2022/09/19 00:54:40;;;;;;;;;;;;;;;9.45;67.36;100525.88;1728469;82;25770;-68
2022/09/19 00:57:07;;;;;;;;;;;;;;;9.44;67.66;100528.71;1740753;82;27625;-68
2022/09/19 00:59:37;;;;;;;;;;;;;;;9.42;67.78;100527.48;1739327;82;25876;-67
2022/09/19 01:02:06;;;;;;;;;;;;;;;9.42;67.72;100530.17;1715645;83;25800;-67
2022/09/19 01:04:38;;;;;;;;;;;;;;;9.40;67.80;100526.28;1708333;84;25770;-68
2022/09/19 01:07:08;;;;;;;;;;;;;;;9.38;67.84;100529.59;1707702;84;25783;-68
2022/09/19 01:09:51;;;;;;;;;;;;;;;9.34;67.33;100522.81;1708361;84;27588;-67
2022/09/19 01:12:45;;;;;;;;;;;;;;;9.33;66.71;100522.45;1708308;84;25779;-68
2022/09/19 01:15:21;;;;;;;;;;;;;;;9.34;66.21;100521.47;1707586;84;25768;-68
2022/09/19 01:17:51;;;;;;;;;;;;;;;9.36;66.16;100513.27;1708272;84;25778;-68
2022/09/19 01:20:38;;;;;;;;;;;;;;;9.42;66.34;100513.22;1708092;84;26343;-67
2022/09/19 01:23:12;;;;;;;;;;;;;;;9.44;66.67;100516.62;1708738;84;27502;-68
2022/09/19 01:26:03;;;;;;;;;;;;;;;9.43;66.62;100517.61;1707572;84;26365;-67
2022/09/19 01:28:48;;;;;;;;;;;;;;;9.40;66.79;100528.97;1708234;84;25771;-68
2022/09/19 01:31:27;;;;;;;;;;;;;;;9.39;67.08;100529.11;1703298;84;25769;-69
2022/09/19 01:34:22;;;;;;;;;;;;;;;9.37;67.15;100521.68;1708655;84;25485;-68
2022/09/19 01:37:00;;;;;;;;;;;;;;;9.35;67.47;100520.48;1708444;84;27480;-68
2022/09/19 01:39:30;;;;;;;;;;;;;;;9.33;67.81;100532.31;1707844;84;25707;-68
2022/09/19 01:41:59;;;;;;;;;;;;;;;9.33;67.97;100532.31;1708467;84;25791;-68
2022/09/19 01:44:27;;;;;;;;;;;;;;;9.30;67.89;100528.07;1691983;84;25850;-69
2022/09/19 01:47:19;;;;;;;;;;;;;;;9.28;68.06;100535.91;1708869;83;25798;-68
2022/09/19 01:50:08;;;;;;;;;;;;;;;9.21;67.22;100532.42;1708322;83;27697;-67
2022/09/19 01:53:09;;;;;;;;;;;;;;;9.20;66.97;100537.91;1708191;83;25730;-69
2022/09/19 01:56:16;;;;;;;;;;;;;;;9.23;67.17;100543.02;1709448;83;25820;-68
2022/09/19 01:58:46;;;;;;;;;;;;;;;9.26;67.36;100536.52;1718512;83;25780;-68
2022/09/19 02:01:28;;;;;;;;;;;;;;;9.26;67.26;100548.13;1739355;81;25696;-68
2022/09/19 02:04:19;;;;;;;;;;;;;;;9.25;67.34;100547.77;1716835;82;27549;-67
2022/09/19 02:07:01;;;;;;;;;;;;;;;9.22;67.26;100552.05;1739557;81;25696;-69
2022/09/19 02:09:44;;;;;;;;;;;;;;;9.18;67.40;100550.13;1740087;82;25686;-66
2022/09/19 02:12:16;;;;;;;;;;;;;;;9.13;67.45;100549.69;1716562;82;25867;-68
2022/09/19 02:14:50;;;;;;;;;;;;;;;9.08;67.58;100542.50;1739776;82;25660;-68
2022/09/19 02:17:15;;;;;;;;;;;;;;;9.05;67.72;100557.05;1716669;82;27531;-68
2022/09/19 02:19:45;;;;;;;;;;;;;;;9.03;67.78;100561.69;1739363;81;25795;-68
2022/09/19 02:22:31;;;;;;;;;;;;;;;9.00;67.89;100563.78;1739780;81;25788;-68
2022/09/19 02:25:06;;;;;;;;;;;;;;;8.97;68.06;100570.27;1739542;82;26628;-68
2022/09/19 02:27:52;;;;;;;;;;;;;;;8.95;67.77;100566.86;1739958;81;25727;-68
2022/09/19 02:30:20;;;;;;;;;;;;;;;8.93;67.72;100560.29;1724170;82;27655;-70
2022/09/19 02:32:49;;;;;;;;;;;;;;;8.94;68.01;100570.52;1685591;85;25711;-69
2022/09/19 02:35:34;;;;;;;;;;;;;;;8.94;68.08;100573.20;1714872;83;25738;-69
2022/09/19 02:38:01;;;;;;;;;;;;;;;8.95;68.11;100570.05;1714013;82;25804;-68
2022/09/19 02:40:41;;;;;;;;;;;;;;;8.91;68.41;100572.98;1715609;83;25782;-68
2022/09/19 02:43:20;;;;;;;;;;;;;;;8.90;68.52;100567.75;1715830;83;27579;-69
2022/09/19 02:45:54;;;;;;;;;;;;;;;8.86;68.31;100565.83;1715552;83;25734;-69
2022/09/19 02:48:52;;;;;;;;;;;;;;;8.85;68.42;100569.48;1715251;83;25788;-67
2022/09/19 02:51:30;;;;;;;;;;;;;;;8.82;68.22;100564.37;1715491;83;25842;-68
2022/09/19 02:54:03;;;;;;;;;;;;;;;8.71;68.39;100571.12;1715758;83;26377;-69
2022/09/19 02:56:34;;;;;;;;;;;;;;;8.64;68.67;100569.47;1698938;83;27635;-68
2022/09/19 02:59:08;;;;;;;;;;;;;;;8.62;68.60;100582.14;1709402;83;26093;-67
2022/09/19 03:01:39;;;;;;;;;;;;;;;8.61;68.72;100577.25;1707097;83;25695;-69
2022/09/19 03:04:14;;;;;;;;;;;;;;;8.59;69.13;100585.94;1707518;84;25882;-68
2022/09/19 03:07:12;;;;;;;;;;;;;;;8.56;69.34;100587.52;1707442;82;25770;-68
2022/09/19 03:09:36;;;;;;;;;;;;;;;8.57;69.55;100595.06;1707230;83;27513;-69
2022/09/19 03:12:14;;;;;;;;;;;;;;;8.58;69.25;100593.63;1706903;83;25711;-68
2022/09/19 03:14:41;;;;;;;;;;;;;;;8.55;69.12;100595.20;1704312;83;26460;-68
2022/09/19 03:17:08;;;;;;;;;;;;;;;8.54;69.22;100602.05;1707445;82;25803;-69
2022/09/19 03:19:36;;;;;;;;;;;;;;;8.55;69.37;100606.44;1707594;84;25791;-68
2022/09/19 03:22:03;;;;;;;;;;;;;;;8.52;69.42;100605.33;1707554;82;27475;-69
2022/09/19 03:24:31;;;;;;;;;;;;;;;8.50;69.40;100616.66;1707564;82;25735;-69
2022/09/19 03:26:58;;;;;;;;;;;;;;;8.48;69.34;100613.25;1707690;84;25623;-69
2022/09/19 03:29:25;;;;;;;;;;;;;;;8.48;69.56;100609.23;1708425;82;25855;-69
2022/09/19 03:31:53;;;;;;;;;;;;;;;8.47;69.55;100613.76;1707917;83;25723;-69
2022/09/19 03:34:21;;;;;;;;;;;;;;;8.46;69.49;100619.59;1707857;83;27487;-68
2022/09/19 03:36:49;;;;;;;;;;;;;;;8.46;69.59;100625.42;1707948;83;25843;-69
2022/09/19 03:39:18;;;;;;;;;;;;;;;8.44;69.85;100626.90;1733087;82;25780;-69
2022/09/19 03:41:45;;;;;;;;;;;;;;;8.46;69.74;100625.42;1740626;82;25804;-69
2022/09/19 03:44:13;;;;;;;;;;;;;;;8.44;69.70;100625.56;1740896;82;25703;-68
2022/09/19 03:46:44;;;;;;;;;;;;;;;8.45;69.66;100629.95;1740923;82;27595;-68
2022/09/19 03:49:11;;;;;;;;;;;;;;;8.43;70.52;100631.02;1740390;82;25686;-68
2022/09/19 03:51:38;;;;;;;;;;;;;;;8.33;70.22;100626.08;1740652;82;25789;-68
2022/09/19 03:54:06;;;;;;;;;;;;;;;8.31;70.30;100639.58;1741117;82;25753;-68
2022/09/19 03:56:34;;;;;;;;;;;;;;;8.32;70.22;100641.80;1740231;82;25729;-68
2022/09/19 03:59:01;;;;;;;;;;;;;;;8.29;70.51;100637.55;1715133;82;27559;-68
2022/09/19 04:01:28;;;;;;;;;;;;;;;8.29;70.63;100645.58;1741286;82;25741;-68
2022/09/19 04:03:55;;;;;;;;;;;;;;;8.31;70.70;100644.95;1741597;82;25781;-67
2022/09/19 04:06:23;;;;;;;;;;;;;;;8.33;70.77;100651.04;1741225;82;25795;-68
2022/09/19 04:08:50;;;;;;;;;;;;;;;8.35;71.06;100652.25;1741397;82;25785;-67
2022/09/19 04:11:18;;;;;;;;;;;;;;;8.30;71.07;100658.84;1741302;82;27496;-68
2022/09/19 04:13:48;;;;;;;;;;;;;;;8.29;71.63;100661.66;1741316;82;25841;-69
2022/09/19 04:16:17;;;;;;;;;;;;;;;8.28;71.11;100667.99;1741346;82;25712;-69
2022/09/19 04:18:47;;;;;;;;;;;;;;;8.35;71.12;100672.34;1741697;82;26991;-67
2022/09/19 04:21:16;;;;;;;;;;;;;;;8.40;71.35;100665.64;1740650;82;25743;-67
2022/09/19 04:23:48;;;;;;;;;;;;;;;8.47;70.81;100663.35;1741437;82;27521;-68
2022/09/19 04:26:16;;;;;;;;;;;;;;;8.56;70.98;100670.64;1721418;82;25496;-68
2022/09/19 04:28:43;;;;;;;;;;;;;;;8.62;70.50;100670.63;1741288;82;25671;-68
2022/09/19 04:31:12;;;;;;;;;;;;;;;8.69;70.44;100673.67;1715703;82;25781;-68
2022/09/19 04:33:40;;;;;;;;;;;;;;;8.79;70.34;100678.61;1715849;83;25835;-68
2022/09/19 04:36:08;;;;;;;;;;;;;;;8.88;70.35;100678.36;1715788;83;27489;-68
2022/09/19 04:38:36;;;;;;;;;;;;;;;8.96;70.36;100675.88;1714313;82;25672;-67
2022/09/19 04:41:08;;;;;;;;;;;;;;;9.05;70.13;100682.33;1711639;82;25788;-69
2022/09/19 04:43:33;;;;;;;;;;;;;;;9.14;70.03;100688.27;1711661;83;25787;-69
2022/09/19 04:46:06;;;;;;;;;;;;;;;9.20;70.09;100697.60;1710800;83;25806;-68
2022/09/19 04:48:37;;;;;;;;;;;;;;;9.26;70.00;100702.95;1708279;83;27501;-69
2022/09/19 04:51:06;;;;;;;;;;;;;;;9.33;69.96;100703.66;1711679;83;25720;-69
2022/09/19 04:53:33;;;;;;;;;;;;;;;9.40;69.49;100699.97;1711517;83;25744;-68
2022/09/19 04:56:01;;;;;;;;;;;;;;;9.46;69.34;100702.63;1711925;83;25921;-69
2022/09/19 04:58:28;;;;;;;;;;;;;;;9.51;68.89;100696.36;1687835;84;26582;-68
2022/09/19 05:00:56;;;;;;;;;;;;;;;9.60;68.80;100705.44;1711551;83;27497;-68
2022/09/19 05:03:25;;;;;;;;;;;;;;;9.69;68.69;100705.52;1710983;84;25715;-69
2022/09/19 05:05:54;;;;;;;;;;;;;;;9.78;68.17;100703.86;1709237;83;25695;-68
2022/09/19 05:08:30;;;;;;;;;;;;;;;9.87;66.95;100708.95;1694689;84;25780;-69
2022/09/19 05:11:21;;;;;;;;;;;;;;;9.93;66.00;100705.71;1694210;84;25732;-68
2022/09/19 05:13:46;;;;;;;;;;;;;;;10.01;64.90;100710.43;1694471;84;27431;-68
2022/09/19 05:16:15;;;;;;;;;;;;;;;10.06;63.89;100708.17;1668276;84;26226;-69
2022/09/19 05:18:50;;;;;;;;;;;;;;;10.15;64.26;100708.72;1694044;84;25751;-68
2022/09/19 05:21:17;;;;;;;;;;;;;;;10.25;63.93;100707.43;1695191;84;25762;-69
2022/09/19 05:23:43;;;;;;;;;;;;;;;10.33;63.29;100704.91;1668986;84;25851;-68
2022/09/19 05:26:16;;;;;;;;;;;;;;;10.42;63.06;100709.98;1694789;84;27526;-70
2022/09/19 05:28:45;;;;;;;;;;;;;;;10.51;61.63;100711.01;1694804;84;25855;-69
2022/09/19 05:31:16;;;;;;;;;;;;;;;10.59;61.38;100708.48;1719274;82;25769;-69
2022/09/19 05:33:45;;;;;;;;;;;;;;;10.69;61.70;100711.69;1715695;83;25807;-69
2022/09/19 05:36:14;;;;;;;;;;;;;;;10.77;61.46;100707.30;1715386;83;25806;-69
2022/09/19 05:38:58;;;;;;;;;;;;;;;10.88;61.55;100707.69;1713579;82;27551;-69
2022/09/19 05:41:43;;;;;;;;;;;;;;;10.97;60.72;100696.56;1711398;84;25726;-69
2022/09/19 05:44:16;;;;;;;;;;;;;;;11.12;60.75;100701.87;1710157;83;25771;-69
2022/09/19 05:46:42;;;;;;;;;;;;;;;11.24;60.38;100699.04;1711231;82;26476;-69
2022/09/19 05:49:09;;;;;;;;;;;;;;;11.35;60.40;100699.38;1711292;84;25770;-70
2022/09/19 05:51:36;;;;;;;;;;;;;;;11.49;60.47;100702.13;1712607;83;27841;-68
2022/09/19 05:54:04;;;;;;;;;;;;;;;11.61;60.70;100694.25;1712054;83;25803;-69
2022/09/19 05:56:42;;;;;;;;;;;;;;;11.74;60.59;100693.42;1678398;85;25854;-69
2022/09/19 05:59:11;;;;;;;;;;;;;;;11.87;60.33;100683.70;1708823;82;25883;-69
2022/09/19 06:01:39;;;;;;;;;;;;;;;11.98;59.64;100686.73;1712715;83;25790;-70
2022/09/19 06:04:07;;;;;;;;;;;;;;;12.08;59.29;100679.95;1692948;83;27739;-70
2022/09/19 06:06:36;;;;;;;;;;;;;;;12.19;58.13;100689.20;1711810;83;25997;-68
2022/09/19 06:09:03;;;;;;;;;;;;;;;12.30;58.51;100690.84;1712203;83;25801;-68
2022/09/19 06:11:32;;;;;;;;;;;;;;;12.43;58.64;100692.36;1712191;83;25792;-69
2022/09/19 06:14:13;;;;;;;;;;;;;;;12.53;58.46;100692.64;1711275;83;25496;-69
2022/09/19 06:16:41;;;;;;;;;;;;;;;12.62;58.35;100693.59;1711728;83;28891;-69
2022/09/19 06:19:19;;;;;;;;;;;;;;;12.67;56.39;100703.94;1711199;84;25753;-69
2022/09/19 06:21:47;;;;;;;;;;;;;;;12.70;54.33;100707.66;1710484;84;25649;-69
2022/09/19 06:24:15;;;;;;;;;;;;;;;12.72;55.72;100706.19;1711275;83;25765;-69
2022/09/19 06:26:42;;;;;;;;;;;;;;;12.72;55.06;100704.83;1711448;84;25802;-69
2022/09/19 06:29:10;;;;;;;;;;;;;;;12.75;54.59;100708.08;1715387;82;27489;-69
2022/09/19 06:31:40;;;;;;;;;;;;;;;12.76;55.28;100701.68;1712041;82;25709;-69
2022/09/19 06:34:08;;;;;;;;;;;;;;;12.77;55.39;100709.27;1709980;83;25842;-70
2022/09/19 06:36:37;;;;;;;;;;;;;;;12.76;54.66;100707.56;1682283;83;26591;-69
2022/09/19 06:39:06;;;;;;;;;;;;;;;12.76;54.86;100704.38;1714435;83;25747;-69
2022/09/19 06:41:35;;;;;;;;;;;;;;;12.77;54.38;100707.43;1714923;83;28326;-69
2022/09/19 06:44:22;;;;;;;;;;;;;;;12.82;54.02;100710.98;1698351;84;25856;-68
2022/09/19 06:47:06;;;;;;;;;;;;;;;12.87;53.86;100708.70;1697759;84;25771;-68
2022/09/19 06:49:44;;;;;;;;;;;;;;;12.90;53.91;100715.64;1699277;83;26451;-70
2022/09/19 06:52:27;;;;;;;;;;;;;;;12.95;53.70;100725.50;1715218;83;25748;-69
2022/09/19 06:54:55;;;;;;;;;;;;;;;13.03;53.51;100731.46;1716048;83;27543;-70
2022/09/19 06:57:23;;;;;;;;;;;;;;;13.09;54.03;100734.89;1715848;83;25801;-68
2022/09/19 06:59:50;;;;;;;;;;;;;;;13.17;53.37;100739.53;1726013;82;25943;-70
2022/09/19 07:02:21;;;;;;;;;;;;;;;13.21;53.78;100736.38;1734803;82;25977;-69
2022/09/19 07:04:46;;;;;;;;;;;;;;;13.29;53.61;100743.20;1735011;82;25792;-69
2022/09/19 07:07:17;;;;;;;;;;;;;;;13.38;52.86;100747.32;1733077;82;28284;-69
2022/09/19 07:09:49;;;;;;;;;;;;;;;13.51;51.59;100738.36;1734108;82;26004;-69
2022/09/19 07:12:15;;;;;;;;;;;;;;;13.69;51.83;100737.48;1734648;82;25631;-70
2022/09/19 07:14:44;;;;;;;;;;;;;;;13.90;51.39;100739.83;1735042;82;25797;-70
2022/09/19 07:17:15;;;;;;;;;;;;;;;14.07;50.98;100725.39;1734840;82;25780;-71
2022/09/19 07:19:39;;;;;;;;;;;;;;;14.25;50.79;100725.83;1734485;82;28559;-70
2022/09/19 07:22:15;;;;;;;;;;;;;;;14.40;50.40;100724.20;1731801;82;25790;-69
2022/09/19 07:24:44;;;;;;;;;;;;;;;14.55;49.37;100724.43;1733108;82;25453;-69
2022/09/19 07:27:30;;;;;;;;;;;;;;;14.73;49.46;100722.67;1734974;82;26903;-70
2022/09/19 07:29:57;;;;;;;;;;;;;;;14.91;48.50;100710.34;1727621;82;25762;-70
2022/09/19 07:32:26;;;;;;;;;;;;;;;15.07;49.42;100713.08;1711553;83;27410;-69
2022/09/19 07:34:53;;;;;;;;;;;;;;;15.24;48.13;100730.21;1710694;83;25818;-69
2022/09/19 07:37:20;;;;;;;;;;;;;;;15.36;45.45;100729.37;1711671;83;25738;-69
2022/09/19 07:39:49;;;;;;;;;;;;;;;15.57;44.61;100729.38;1713164;82;25719;-70
2022/09/19 07:42:20;;;;;;;;;;;;;;;15.66;45.00;100731.06;1710146;83;27350;-70
2022/09/19 07:45:06;;;;;;;;;;;;;;;15.84;44.65;100722.75;1710212;83;28260;-69
2022/09/19 07:47:45;;;;;;;;;;;;;;;16.02;44.15;100731.20;1679716;83;25908;-69
2022/09/19 07:50:19;;;;;;;;;;;;;;;16.20;44.60;100736.42;1707071;83;25797;-70
2022/09/19 07:53:03;;;;;;;;;;;;;;;16.43;43.33;100743.30;1709046;83;25828;-71
2022/09/19 07:55:31;;;;;;;;;;;;;;;16.55;43.94;100737.80;1711951;83;26375;-71
2022/09/19 07:58:00;;;;;;;;;;;;;;;16.77;43.86;100744.84;1711738;83;27452;-69
2022/09/19 08:00:45;;;;;;;;;;;;;;;16.86;42.89;100734.77;1711662;82;25965;-68
2022/09/19 08:03:15;;;;;;;;;;;;;;;17.02;41.23;100743.38;1710889;83;25774;-69
2022/09/19 08:05:44;;;;;;;;;;;;;;;17.09;40.47;100745.70;1711899;83;26600;-69
2022/09/19 08:08:12;;;;;;;;;;;;;;;17.10;40.00;100748.75;1712116;83;25917;-69
2022/09/19 08:10:40;;;;;;;;;;;;;;;17.01;39.49;100750.69;1708138;83;27560;-69
2022/09/19 08:13:08;;;;;;;;;;;;;;;17.03;40.47;100760.02;1712048;83;25963;-70
2022/09/19 08:15:36;;;;;;;;;;;;;;;17.10;39.47;100751.47;1711952;83;25777;-69
2022/09/19 08:18:09;;;;;;;;;;;;;;;17.18;38.62;100748.70;1711737;83;26244;-68
2022/09/19 08:20:37;;;;;;;;;;;;;;;17.22;39.11;100745.10;1709041;83;25807;-68
2022/09/19 08:23:07;;;;;;;;;;;;;;;17.30;39.17;100749.12;1712313;83;27581;-69
2022/09/19 08:25:38;;;;;;;;;;;;;;;17.38;39.05;100750.94;1712411;83;26079;-68
2022/09/19 08:28:05;;;;;;;;;;;;;;;17.52;39.38;100752.89;1712323;83;25742;-68
2022/09/19 08:30:36;;;;;;;;;;;;;;;17.76;39.76;100750.97;1712119;83;25793;-67
2022/09/19 08:33:06;;;;;;;;;;;;;;;18.04;37.94;100749.03;1709201;83;25782;-68
2022/09/19 08:35:37;;;;;;;;;;;;;;;18.23;38.33;100747.62;1711845;83;27589;-70
2022/09/19 08:38:02;;;;;;;;;;;;;;;18.41;38.72;100749.98;1708987;82;25690;-68
2022/09/19 08:40:33;;;;;;;;;;;;;;;18.64;37.96;100751.73;1711647;83;25823;-69
2022/09/19 08:43:24;;;;;;;;;;;;;;;18.56;37.08;100752.67;1712325;83;25891;-69
2022/09/19 08:46:06;;;;;;;;;;;;;;;18.64;36.78;100758.55;1712748;83;25789;-69
2022/09/19 08:48:38;;;;;;;;;;;;;;;18.58;37.24;100742.97;1712754;83;27603;-67
2022/09/19 08:51:09;;;;;;;;;;;;;;;18.53;37.09;100744.04;1711680;83;26169;-69
2022/09/19 08:53:40;;;;;;;;;;;;;;;18.48;37.19;100750.05;1712470;83;25756;-70
2022/09/19 08:56:08;;;;;;;;;;;;;;;18.36;37.31;100744.77;1711801;83;26251;-70
2022/09/19 08:58:38;;;;;;;;;;;;;;;18.25;37.86;100743.34;1712015;83;25542;-70
2022/09/19 09:01:10;;;;;;;;;;;;;;;18.20;36.38;100749.88;1693323;83;27528;-69
2022/09/19 09:03:45;;;;;;;;;;;;;;;18.10;35.88;100742.84;1685703;84;25851;-70
2022/09/19 09:06:38;;;;;;;;;;;;;;;18.07;36.20;100744.55;1682826;85;25876;-70
2022/09/19 09:09:21;;;;;;;;;;;;;;;18.04;35.97;100751.76;1686358;85;26747;-70
2022/09/19 09:11:57;;;;;;;;;;;;;;;18.06;36.55;100745.62;1682606;85;25813;-69
2022/09/19 09:14:43;;;;;;;;;;;;;;;18.11;37.26;100738.22;1686429;85;27145;-68
2022/09/19 09:17:19;;;;;;;;;;;;;;;18.17;36.77;100737.99;1682678;85;25858;-69
2022/09/19 09:20:06;;;;;;;;;;;;;;;18.09;35.89;100730.25;1681665;85;25765;-69
2022/09/19 09:22:38;;;;;;;;;;;;;;;17.97;36.45;100735.84;1686397;85;25891;-69
2022/09/19 09:25:30;;;;;;;;;;;;;;;17.90;36.52;100732.98;1685264;85;25784;-69
2022/09/19 09:28:18;;;;;;;;;;;;;;;18.04;36.51;100738.14;1683019;85;27813;-68
2022/09/19 09:30:49;;;;;;;;;;;;;;;18.58;36.48;100736.98;1678225;84;25870;-68
2022/09/19 09:33:25;;;;;;;;;;;;;;;19.63;33.76;100721.65;1692085;84;25816;-69
2022/09/19 09:36:06;;;;;;;;;;;;;;;20.12;32.62;100734.95;1687379;84;25803;-68
2022/09/19 09:38:49;;;;;;;;;;;;;;;20.43;32.61;100732.80;1691875;84;25596;-69
2022/09/19 09:44:34;;;;;;;;;;;;;;;21.79;31.59;100730.20;1692866;84;26003;-69
2022/09/19 09:47:24;;;;;;;;;;;;;;;22.22;31.28;100724.25;1700516;84;25704;-70
2022/09/19 09:49:57;;;;;;;;;;;;;;;22.53;28.79;100717.20;1699001;84;25871;-69
2022/09/19 09:52:33;;;;;;;;;;;;;;;23.09;28.15;100726.62;1688413;84;26008;-70
2022/09/19 09:58:24;;;;;;;;;;;;;;;23.70;29.63;100722.94;1683539;85;27343;-71
2022/09/19 10:03:49;;;;;;;;;;;;;;;25.22;28.63;100704.56;1707551;84;26791;-71
2022/09/19 10:06:38;;;;;;;;;;;;;;;26.02;26.77;100702.36;1707450;84;25742;-71
2022/09/19 10:09:09;;;;;;;;;;;;;;;26.85;24.59;100707.70;1707670;83;27649;-71
2022/09/19 10:11:41;;;;;;;;;;;;;;;27.21;24.13;100712.23;1707048;83;25605;-71
2022/09/19 10:14:18;;;;;;;;;;;;;;;27.69;23.52;100714.16;1707305;83;25662;-71
2022/09/19 10:16:47;;;;;;;;;;;;;;;28.09;22.73;100720.88;1707582;84;26429;-70
2022/09/19 10:19:27;;;;;;;;;;;;;;;28.72;24.09;100712.83;1679066;83;25911;-71
2022/09/19 10:21:50;;;;;;;;;;;;;;;29.19;20.85;100722.44;1702439;83;27502;-71
2022/09/19 10:24:45;;;;;;;;;;;;;;;29.27;20.63;100718.36;1706416;83;25869;-72
2022/09/19 10:27:23;;;;;;;;;;;;;;;29.51;20.63;100717.50;1659351;86;25847;-70
2022/09/19 10:29:59;;;;;;;;;;;;;;;29.51;19.84;100714.73;1656900;85;25850;-69
2022/09/19 10:32:37;;;;;;;;;;;;;;;29.35;19.61;100711.84;1691557;84;26027;-71
2022/09/19 10:35:31;;;;;;;;;;;;;;;29.61;21.55;100716.20;1707492;83;27500;-70
2022/09/19 10:38:15;;;;;;;;;;;;;;;30.24;20.81;100706.33;1708237;83;25813;-72
2022/09/19 10:40:57;;;;;;;;;;;;;;;30.84;20.88;100701.30;1712767;83;25786;-72
2022/09/19 10:43:51;;;;;;;;;;;;;;;31.30;19.44;100703.89;1713020;83;26268;-72
2022/09/19 10:46:36;;;;;;;;;;;;;;;31.32;19.67;100696.94;1707673;83;25552;-72
2022/09/19 10:49:18;;;;;;;;;;;;;;;31.68;20.27;100694.73;1671214;84;27700;-70
2022/09/19 10:51:47;;;;;;;;;;;;;;;32.07;19.51;100696.03;1705261;83;25790;-70
2022/09/19 10:54:32;;;;;;;;;;;;;;;31.97;18.78;100703.83;1707217;83;25862;-71
2022/09/19 10:57:00;;;;;;;;;;;;;;;32.23;18.60;100707.41;1703211;83;25955;-70
2022/09/19 10:59:35;;;;;;;;;;;;;;;31.76;19.63;100696.09;1707588;84;25761;-71
2022/09/19 11:02:22;;;;;;;;;;;;;;;31.91;20.33;100691.06;1708238;83;27485;-70
2022/09/19 11:05:03;;;;;;;;;;;;;;;31.39;20.13;100696.66;1712451;83;25730;-71
2022/09/19 11:07:49;;;;;;;;;;;;;;;30.08;19.72;100709.03;1709068;84;25769;-70
2022/09/19 11:10:41;;;;;;;;;;;;;;;29.85;20.88;100683.91;1708739;84;26809;-70
2022/09/19 11:13:22;;;;;;;;;;;;;;;30.31;20.63;100686.10;1709912;83;25765;-70
2022/09/19 11:16:11;;;;;;;;;;;;;;;30.68;20.26;100680.98;1712995;83;27655;-73
2022/09/19 11:19:02;;;;;;;;;;;;;;;30.04;20.32;100676.56;1712718;83;26166;-73
2022/09/19 11:21:44;;;;;;;;;;;;;;;29.56;20.18;100678.73;1711246;83;25820;-72
2022/09/19 11:24:23;;;;;;;;;;;;;;;29.15;20.34;100683.91;1714303;83;25812;-72
2022/09/19 11:26:59;;;;;;;;;;;;;;;28.39;21.19;100688.34;1711654;83;25821;-71
2022/09/19 11:29:55;;;;;;;;;;;;;;;27.96;21.91;100686.11;1710852;83;27598;-71
2022/09/19 11:32:34;;;;;;;;;;;;;;;27.62;21.20;100676.47;1709542;83;26600;-72
2022/09/19 11:35:08;;;;;;;;;;;;;;;27.48;21.87;100678.73;1665165;83;25774;-70
2022/09/19 11:37:58;;;;;;;;;;;;;;;27.03;21.63;100676.84;1710007;83;25877;-71
2022/09/19 11:40:35;;;;;;;;;;;;;;;26.43;23.29;100678.17;1713916;83;25687;-72
2022/09/19 11:43:34;;;;;;;;;;;;;;;25.88;23.46;100687.16;1715693;83;29708;-71
2022/09/19 11:46:31;;;;;;;;;;;;;;;24.89;23.54;100687.98;1715588;83;25730;-71
2022/09/19 11:49:27;;;;;;;;;;;;;;;24.47;24.31;100689.28;1715744;83;25773;-70
2022/09/19 11:52:05;;;;;;;;;;;;;;;24.15;24.45;100686.71;1709513;83;25959;-69
2022/09/19 11:54:55;;;;;;;;;;;;;;;23.73;25.20;100693.63;1712856;83;25785;-70
2022/09/19 11:57:37;;;;;;;;;;;;;;;23.53;25.76;100680.09;1711789;83;27465;-72
2022/09/19 12:00:25;;;;;;;;;;;;;;;23.62;26.64;100670.20;1711052;83;26020;-71
2022/09/19 12:03:05;;;;;;;;;;;;;;;24.29;25.79;100668.98;1713113;83;25762;-71
2022/09/19 12:05:46;;;;;;;;;;;;;;;24.87;24.63;100665.41;1713342;83;25812;-72
2022/09/19 12:08:28;;;;;;;;;;;;;;;25.13;24.89;100659.19;1713646;83;26953;-73
2022/09/19 12:10:59;;;;;;;;;;;;;;;25.60;23.98;100655.66;1683438;83;27495;-71
2022/09/19 12:13:53;;;;;;;;;;;;;;;26.07;24.17;100651.50;1709982;83;25654;-71
2022/09/19 12:16:25;;;;;;;;;;;;;;;26.32;23.48;100650.91;1684314;85;25843;-71
2022/09/19 12:18:57;;;;;;;;;;;;;;;26.25;23.81;100651.06;1687210;85;25866;-71
2022/09/19 12:21:37;;;;;;;;;;;;;;;26.12;22.77;100652.17;1686969;85;25762;-70
2022/09/19 12:27:12;;;;;;;;;;;;;;;25.92;23.90;100642.34;1708597;83;25677;-71
2022/09/19 12:29:50;;;;;;;;;;;;;;;26.21;22.50;100642.45;1709789;82;25735;-69
2022/09/19 12:32:23;;;;;;;;;;;;;;;25.60;22.91;100647.41;1710091;83;25819;-70
2022/09/19 12:35:06;;;;;;;;;;;;;;;24.84;23.89;100650.73;1712845;83;25771;-71
2022/09/19 12:37:54;;;;;;;;;;;;;;;24.77;23.42;100655.49;1713351;83;27469;-69
2022/09/19 12:40:48;;;;;;;;;;;;;;;24.59;24.69;100658.56;1710256;82;26122;-70
2022/09/19 12:43:33;;;;;;;;;;;;;;;24.14;24.54;100657.00;1706874;83;25739;-71
2022/09/19 12:46:31;;;;;;;;;;;;;;;23.88;25.38;100654.00;1625224;87;25920;-71
2022/09/19 12:49:18;;;;;;;;;;;;;;;23.50;25.19;100659.95;1687494;83;25710;-71
2022/09/19 12:52:16;;;;;;;;;;;;;;;22.91;25.70;100653.31;1715306;83;28905;-72
2022/09/19 12:55:17;;;;;;;;;;;;;;;22.88;26.65;100657.86;1715152;83;25765;-70
2022/09/19 12:58:16;;;;;;;;;;;;;;;22.88;26.22;100663.34;1715672;83;25776;-71
2022/09/19 13:00:45;;;;;;;;;;;;;;;23.01;26.03;100671.19;1713344;83;25872;-71
2022/09/19 13:03:19;;;;;;;;;;;;;;;22.98;26.60;100672.48;1707370;84;25850;-72
2022/09/19 13:05:52;;;;;;;;;;;;;;;22.89;26.46;100671.88;1706939;83;27555;-72
2022/09/19 13:08:37;;;;;;;;;;;;;;;22.67;26.94;100668.64;1707260;83;25703;-71
2022/09/19 13:11:13;;;;;;;;;;;;;;;22.57;26.90;100672.38;1707238;83;25670;-71
2022/09/19 13:13:47;;;;;;;;;;;;;;;22.35;27.31;100674.87;1707360;83;26672;-69
2022/09/19 13:16:17;;;;;;;;;;;;;;;22.24;27.63;100674.16;1707410;84;25785;-70
2022/09/19 13:24:07;;;;;;;;;;;;;;;21.92;28.07;100686.38;1667715;82;25827;-71
2022/09/19 13:26:35;;;;;;;;;;;;;;;21.62;28.41;100687.38;1707865;83;25789;-71
2022/09/19 13:29:22;;;;;;;;;;;;;;;21.49;28.77;100682.17;1708555;83;25954;-69
2022/09/19 13:31:55;;;;;;;;;;;;;;;21.37;29.18;100686.08;1707923;84;27468;-70
2022/09/19 13:34:41;;;;;;;;;;;;;;;21.32;29.43;100689.98;1705662;84;25798;-70
2022/09/19 13:37:30;;;;;;;;;;;;;;;21.42;29.12;100697.25;1703895;84;25816;-68
2022/09/19 13:40:25;;;;;;;;;;;;;;;21.56;29.41;100686.28;1709605;82;25968;-70
2022/09/19 13:43:13;;;;;;;;;;;;;;;21.60;29.11;100684.86;1703113;83;26158;-71